createdAt,value
2023-01-23T00:01:35.215Z,103050.25
2023-01-23T00:04:03.362Z,103057.19
2023-01-23T00:06:31.105Z,103045.75
2023-01-23T00:09:00.009Z,103041.22
2023-01-23T00:11:29.997Z,103040.09
2023-01-23T00:13:58.193Z,103038.38
2023-01-23T00:16:26.977Z,103032.19
2023-01-23T00:18:54.675Z,103045.94
2023-01-23T00:21:23.975Z,103046.91
2023-01-23T00:23:53.023Z,103043.16
2023-01-23T00:26:24.178Z,103035.69
2023-01-23T00:28:51.746Z,103039.78
2023-01-23T00:31:20.910Z,103039.19
2023-01-23T00:33:48.486Z,103040.00
2023-01-23T00:36:16.387Z,103048.44
2023-01-23T00:38:43.802Z,103042.88
2023-01-23T00:41:12.409Z,103050.03
2023-01-23T00:43:41.265Z,103054.72
2023-01-23T00:46:08.678Z,103052.00
2023-01-23T00:48:36.141Z,103063.47
2023-01-23T00:51:03.577Z,103059.03
2023-01-23T00:53:31.019Z,103065.50
2023-01-23T00:55:58.411Z,103066.59
2023-01-23T00:58:26.122Z,103072.91
2023-01-23T01:00:55.021Z,103068.13
2023-01-23T01:03:25.010Z,103074.56
2023-01-23T01:05:52.752Z,103069.53
2023-01-23T01:08:20.398Z,103085.50
2023-01-23T01:10:47.835Z,103084.94
2023-01-23T01:13:19.037Z,103092.25
2023-01-23T01:15:46.478Z,103089.00
2023-01-23T01:18:15.721Z,103086.63
2023-01-23T01:20:44.075Z,103091.63
2023-01-23T01:23:11.582Z,103087.56
2023-01-23T01:25:39.742Z,103096.44
2023-01-23T01:28:07.512Z,103098.69
2023-01-23T01:30:36.653Z,103097.13
2023-01-23T01:33:04.244Z,103093.19
2023-01-23T01:35:33.155Z,103095.84
2023-01-23T01:38:00.748Z,103098.66
2023-01-23T01:40:30.489Z,103105.38
2023-01-23T01:43:00.846Z,103107.06
2023-01-23T01:46:03.086Z,103112.94
2023-01-23T01:48:33.143Z,103113.88
2023-01-23T01:51:02.410Z,103121.22
2023-01-23T01:53:30.689Z,103109.00
2023-01-23T01:55:58.470Z,103111.53
2023-01-23T01:58:26.170Z,103117.69
2023-01-23T02:00:54.290Z,103114.22
2023-01-23T02:03:22.301Z,103122.75
2023-01-23T02:05:50.740Z,103114.91
2023-01-23T02:08:23.735Z,103118.69
2023-01-23T02:10:54.009Z,103121.78
2023-01-23T02:13:24.693Z,103116.56
2023-01-23T02:15:52.709Z,103120.38
2023-01-23T02:18:20.676Z,103124.31
2023-01-23T02:20:48.495Z,103129.06
2023-01-23T02:23:23.856Z,103123.47
2023-01-23T02:25:56.218Z,103125.28
2023-01-23T02:28:24.186Z,103128.09
2023-01-23T02:30:51.626Z,103123.31
2023-01-23T02:33:50.964Z,103128.34
2023-01-23T02:36:20.438Z,103123.75
2023-01-23T02:38:54.658Z,103123.56
2023-01-23T02:41:25.792Z,103126.66
2023-01-23T02:43:54.850Z,103133.25
2023-01-23T02:46:22.283Z,103138.88
2023-01-23T02:48:49.669Z,103136.34
2023-01-23T02:51:18.477Z,103130.31
2023-01-23T02:53:45.934Z,103125.56
2023-01-23T02:56:13.361Z,103126.13
2023-01-23T02:59:00.257Z,103125.56
2023-01-23T03:01:28.341Z,103130.59
2023-01-23T03:04:03.512Z,103123.75
2023-01-23T03:06:36.029Z,103125.84
2023-01-23T03:09:07.636Z,103123.31
2023-01-23T03:11:36.127Z,103121.94
2023-01-23T03:14:06.126Z,103124.03
2023-01-23T03:16:36.038Z,103127.94
2023-01-23T03:19:08.184Z,103116.31
2023-01-23T03:21:37.419Z,103128.91
2023-01-23T03:24:05.897Z,103126.78
2023-01-23T03:26:33.305Z,103115.00
2023-01-23T03:29:18.642Z,103119.06
2023-01-23T03:31:47.561Z,103125.25
2023-01-23T03:34:17.803Z,103124.25
2023-01-23T03:36:45.323Z,103126.38
2023-01-23T03:39:30.313Z,103128.19
2023-01-23T03:41:57.802Z,103143.16
2023-01-23T03:44:25.249Z,103131.69
2023-01-23T03:46:54.181Z,103135.50
2023-01-23T03:49:21.936Z,103127.75
2023-01-23T03:51:49.443Z,103128.72
2023-01-23T03:54:16.901Z,103130.16
2023-01-23T03:56:44.775Z,103135.91
2023-01-23T03:59:12.243Z,103135.19
2023-01-23T04:01:40.109Z,103134.50
2023-01-23T04:04:08.962Z,103133.50
2023-01-23T04:06:36.374Z,103135.47
2023-01-23T04:09:04.013Z,103132.53
2023-01-23T04:11:31.377Z,103131.66
2023-01-23T04:13:59.045Z,103138.25
2023-01-23T04:16:28.624Z,103132.41
2023-01-23T04:18:56.267Z,103146.56
2023-01-23T04:21:25.412Z,103151.47
2023-01-23T04:23:52.966Z,103146.69
2023-01-23T04:26:20.445Z,103151.19
2023-01-23T04:28:47.799Z,103150.50
2023-01-23T04:31:15.269Z,103160.00
2023-01-23T04:33:42.693Z,103158.75
2023-01-23T04:36:11.570Z,103163.66
2023-01-23T04:38:40.405Z,103157.63
2023-01-23T04:41:07.924Z,103159.88
2023-01-23T04:43:35.846Z,103152.44
2023-01-23T04:46:03.298Z,103156.38
2023-01-23T04:48:30.737Z,103160.97
2023-01-23T04:50:58.188Z,103158.34
2023-01-23T04:53:25.709Z,103160.28
2023-01-23T04:55:54.627Z,103163.81
2023-01-23T04:58:22.133Z,103164.22
2023-01-23T05:00:49.645Z,103164.22
2023-01-23T05:03:17.641Z,103163.09
2023-01-23T05:05:45.118Z,103173.75
2023-01-23T05:08:13.042Z,103182.13
2023-01-23T05:10:40.722Z,103175.84
2023-01-23T05:13:10.398Z,103178.91
2023-01-23T05:15:37.821Z,103178.50
2023-01-23T05:18:05.352Z,103177.78
2023-01-23T05:20:32.737Z,103182.13
2023-01-23T05:23:00.104Z,103180.91
2023-01-23T05:25:29.115Z,103188.31
2023-01-23T05:27:56.818Z,103192.47
2023-01-23T05:30:25.597Z,103196.28
2023-01-23T05:32:53.126Z,103189.97
2023-01-23T05:35:20.590Z,103192.25
2023-01-23T05:37:50.337Z,103183.28
2023-01-23T05:40:18.771Z,103191.53
2023-01-23T05:42:46.534Z,103202.03
2023-01-23T05:45:14.176Z,103205.94
2023-01-23T05:47:43.487Z,103203.56
2023-01-23T05:50:15.460Z,103201.59
2023-01-23T05:52:42.959Z,103207.59
2023-01-23T05:55:10.548Z,103206.38
2023-01-23T05:57:37.998Z,103216.16
2023-01-23T06:00:06.442Z,103215.72
2023-01-23T06:02:35.052Z,103222.19
2023-01-23T06:05:03.889Z,103226.13
2023-01-23T06:07:31.398Z,103234.53
2023-01-23T06:09:58.796Z,103238.75
2023-01-23T06:12:26.393Z,103236.63
2023-01-23T06:14:53.737Z,103236.19
2023-01-23T06:17:21.303Z,103229.63
2023-01-23T06:19:48.863Z,103225.97
2023-01-23T06:22:17.701Z,103239.03
2023-01-23T06:24:45.171Z,103246.97
2023-01-23T06:27:12.665Z,103243.19
2023-01-23T06:29:40.117Z,103246.97
2023-01-23T06:32:07.625Z,103251.00
2023-01-23T06:34:36.853Z,103250.00
2023-01-23T06:37:04.489Z,103256.44
2023-01-23T06:39:34.115Z,103260.53
2023-01-23T06:42:01.617Z,103262.75
2023-01-23T06:44:29.267Z,103262.84
2023-01-23T06:46:56.611Z,103266.03
2023-01-23T06:49:24.011Z,103273.22
2023-01-23T06:51:51.368Z,103273.34
2023-01-23T06:54:18.769Z,103277.13
2023-01-23T06:56:49.424Z,103282.88
2023-01-23T06:59:16.921Z,103285.84
2023-01-23T07:01:44.359Z,103275.88
2023-01-23T07:04:11.785Z,103288.06
2023-01-23T07:06:39.233Z,103281.78
2023-01-23T07:09:06.608Z,103286.19
2023-01-23T07:11:34.112Z,103290.84
2023-01-23T07:14:02.950Z,103283.56
2023-01-23T07:16:30.409Z,103293.41
2023-01-23T07:18:58.817Z,103294.22
2023-01-23T07:21:26.323Z,103288.03
2023-01-23T07:23:53.789Z,103295.34
2023-01-23T07:26:21.292Z,103302.06
2023-01-23T07:28:48.720Z,103302.22
2023-01-23T07:31:17.615Z,103309.34
2023-01-23T07:33:44.982Z,103314.66
2023-01-23T07:36:13.958Z,103314.78
2023-01-23T07:38:41.935Z,103325.03
2023-01-23T07:41:10.062Z,103320.91
2023-01-23T07:43:38.159Z,103315.28
2023-01-23T07:46:05.766Z,103323.75
2023-01-23T07:48:34.501Z,103320.03
2023-01-23T07:51:03.119Z,103328.09
2023-01-23T07:53:30.758Z,103320.97
2023-01-23T07:55:58.246Z,103316.22
2023-01-23T07:58:25.809Z,103323.63
2023-01-23T08:00:53.410Z,103315.91
2023-01-23T08:03:21.088Z,103324.91
2023-01-23T08:05:50.790Z,103331.88
2023-01-23T08:08:18.179Z,103334.16
2023-01-23T08:10:45.553Z,103331.91
2023-01-23T08:13:13.161Z,103346.16
2023-01-23T08:15:40.688Z,103339.66
2023-01-23T08:18:08.204Z,103343.38
2023-01-23T08:20:35.633Z,103343.81
2023-01-23T08:23:04.331Z,103346.31
2023-01-23T08:25:32.044Z,103348.44
2023-01-23T08:27:59.404Z,103352.72
2023-01-23T08:30:26.890Z,103346.47
2023-01-23T08:32:54.320Z,103346.28
2023-01-23T08:35:21.684Z,103347.22
2023-01-23T08:37:49.414Z,103356.69
2023-01-23T08:40:18.874Z,103362.13
2023-01-23T08:42:46.373Z,103362.94
2023-01-23T08:45:13.797Z,103358.03
2023-01-23T08:47:41.148Z,103356.50
2023-01-23T08:50:10.237Z,103351.06
2023-01-23T08:52:37.585Z,103357.72
2023-01-23T08:55:05.572Z,103361.69
2023-01-23T08:57:34.318Z,103356.28
2023-01-23T09:00:01.700Z,103366.81
2023-01-23T09:02:29.144Z,103364.44
2023-01-23T09:04:56.487Z,103372.91
2023-01-23T09:07:23.976Z,103374.31
2023-01-23T09:09:51.422Z,103380.38
2023-01-23T09:12:18.782Z,103373.78
2023-01-23T09:14:47.505Z,103373.06
2023-01-23T09:17:14.838Z,103381.50
2023-01-23T09:19:42.231Z,103374.88
2023-01-23T09:22:09.580Z,103377.22
2023-01-23T09:24:36.925Z,103372.88
2023-01-23T09:27:04.438Z,103374.50
2023-01-23T09:29:31.825Z,103376.78
2023-01-23T09:32:00.579Z,103377.69
2023-01-23T09:34:28.015Z,103384.97
2023-01-23T09:36:55.533Z,103383.22
2023-01-23T09:39:23.030Z,103380.44
2023-01-23T09:41:50.565Z,103388.53
2023-01-23T09:44:21.434Z,103393.31
2023-01-23T09:46:51.483Z,103393.31
2023-01-23T09:49:26.794Z,103399.81
2023-01-23T09:51:57.599Z,103401.31
2023-01-23T09:54:38.725Z,103397.09
2023-01-23T09:57:14.339Z,103402.06
2023-01-23T09:59:58.734Z,103391.78
2023-01-23T10:02:28.762Z,103387.75
2023-01-23T10:04:58.975Z,103390.66
2023-01-23T10:07:45.754Z,103386.25
2023-01-23T10:10:38.382Z,103396.88
2023-01-23T10:13:09.057Z,103397.41
2023-01-23T10:15:48.447Z,103394.63
2023-01-23T10:18:20.235Z,103406.13
2023-01-23T10:20:52.561Z,103399.25
2023-01-23T10:23:33.578Z,103405.72
2023-01-23T10:26:04.498Z,103401.25
2023-01-23T10:28:34.923Z,103399.28
2023-01-23T10:31:04.943Z,103396.47
2023-01-23T10:33:40.487Z,103394.81
2023-01-23T10:36:23.633Z,103385.03
2023-01-23T10:38:59.076Z,103395.13
2023-01-23T10:41:26.511Z,103397.09
2023-01-23T10:43:56.900Z,103395.25
2023-01-23T10:46:30.295Z,103389.78
2023-01-23T10:48:58.108Z,103390.91
2023-01-23T10:51:47.990Z,103398.56
2023-01-23T10:54:31.199Z,103394.56
2023-01-23T10:57:01.335Z,103401.81
2023-01-23T10:59:32.602Z,103396.50
2023-01-23T11:02:17.580Z,103392.16
2023-01-23T11:04:46.575Z,103394.81
2023-01-23T11:07:17.990Z,103390.47
2023-01-23T11:09:48.325Z,103398.47
2023-01-23T11:12:18.746Z,103389.75
2023-01-23T11:14:46.750Z,103393.81
2023-01-23T11:17:20.718Z,103398.13
2023-01-23T11:19:49.791Z,103397.69
2023-01-23T11:22:33.033Z,103396.75
2023-01-23T11:25:00.862Z,103389.06
2023-01-23T11:27:30.866Z,103389.47
2023-01-23T11:30:28.457Z,103393.44
2023-01-23T11:32:59.194Z,103394.25
2023-01-23T11:35:46.330Z,103392.56
2023-01-23T11:38:27.169Z,103393.72
2023-01-23T11:40:57.648Z,103395.13
2023-01-23T11:43:26.108Z,103397.09
2023-01-23T11:46:06.451Z,103392.16
2023-01-23T11:48:48.260Z,103391.47
2023-01-23T11:51:21.329Z,103381.69
2023-01-23T11:53:55.486Z,103389.09
2023-01-23T11:56:41.265Z,103379.28
2023-01-23T11:59:42.009Z,103382.53
2023-01-23T12:02:47.792Z,103364.91
2023-01-23T12:05:39.145Z,103372.72
2023-01-23T12:08:18.364Z,103373.00
2023-01-23T12:10:55.498Z,103362.50
2023-01-23T12:13:36.558Z,103367.44
2023-01-23T12:16:11.515Z,103374.69
2023-01-23T12:18:47.338Z,103371.91
2023-01-23T12:21:19.165Z,103379.13
2023-01-23T12:24:01.364Z,103380.28
2023-01-23T12:26:30.810Z,103384.97
2023-01-23T12:29:28.082Z,103385.09
2023-01-23T12:32:05.243Z,103385.16
2023-01-23T12:34:46.787Z,103388.94
2023-01-23T12:37:37.238Z,103381.13
2023-01-23T12:40:13.209Z,103388.88
2023-01-23T12:42:48.733Z,103392.47
2023-01-23T12:45:22.773Z,103393.56
2023-01-23T12:47:56.534Z,103391.78
2023-01-23T12:50:36.175Z,103393.75
2023-01-23T12:53:07.844Z,103394.19
2023-01-23T12:55:38.284Z,103386.88
2023-01-23T12:58:09.466Z,103388.31
2023-01-23T13:00:45.798Z,103390.13
2023-01-23T13:03:44.870Z,103395.56
2023-01-23T13:06:30.155Z,103391.91
2023-01-23T13:09:16.756Z,103393.47
2023-01-23T13:11:51.462Z,103397.97
2023-01-23T13:14:25.417Z,103404.00
2023-01-23T13:16:55.545Z,103401.44
2023-01-23T13:19:42.859Z,103402.56
2023-01-23T13:22:26.990Z,103405.28
2023-01-23T13:25:12.543Z,103396.84
2023-01-23T13:27:46.110Z,103413.94
2023-01-23T13:30:42.589Z,103410.78
2023-01-23T13:34:03.689Z,103404.50
2023-01-23T13:36:38.541Z,103404.97
2023-01-23T13:39:21.869Z,103404.09
2023-01-23T13:41:51.275Z,103407.06
2023-01-23T13:44:27.128Z,103411.97
2023-01-23T14:20:42.340Z,103433.81
2023-01-23T14:23:18.906Z,103429.03
2023-01-23T14:25:46.399Z,103430.75
2023-01-23T14:28:18.049Z,103429.38
2023-01-23T14:30:54.723Z,103430.19
2023-01-23T14:33:22.181Z,103425.59
2023-01-23T14:35:52.364Z,103430.78
2023-01-23T14:38:25.415Z,103433.31
2023-01-23T14:40:52.857Z,103428.38
2023-01-23T14:43:22.451Z,103432.06
2023-01-23T14:45:53.632Z,103420.69
2023-01-23T14:48:22.134Z,103427.13
2023-01-23T14:50:49.529Z,103428.56
2023-01-23T14:53:18.212Z,103424.16
2023-01-23T14:55:49.562Z,103419.28
2023-01-23T14:58:21.960Z,103420.25
2023-01-23T15:00:50.197Z,103414.38
2023-01-23T15:03:35.889Z,103414.22
2023-01-23T15:06:04.501Z,103417.22
2023-01-23T15:08:34.517Z,103422.38
2023-01-23T15:11:03.047Z,103425.69
2023-01-23T15:13:36.059Z,103417.59
2023-01-23T15:16:05.061Z,103425.91
2023-01-23T15:18:34.492Z,103428.94
2023-01-23T15:21:03.753Z,103424.47
2023-01-23T15:23:34.912Z,103417.72
2023-01-23T15:26:26.829Z,103421.69
2023-01-23T15:28:55.329Z,103413.44
2023-01-23T15:31:26.269Z,103422.09
2023-01-23T15:33:54.057Z,103423.38
2023-01-23T15:36:27.464Z,103409.34
2023-01-23T15:38:58.165Z,103407.81
2023-01-23T15:41:39.237Z,103406.66
2023-01-23T15:44:13.219Z,103413.41
2023-01-23T15:46:40.636Z,103412.28
2023-01-23T15:49:16.435Z,103415.94
2023-01-23T15:51:51.546Z,103417.72
2023-01-23T15:54:26.209Z,103410.84
2023-01-23T15:57:05.570Z,103415.06
2023-01-23T15:59:35.110Z,103405.56
2023-01-23T16:02:02.477Z,103396.88
2023-01-23T16:04:29.827Z,103404.31
2023-01-23T16:06:57.389Z,103404.97
2023-01-23T16:09:30.520Z,103404.19
2023-01-23T16:11:58.188Z,103399.94
2023-01-23T16:14:25.718Z,103399.00
2023-01-23T16:16:53.099Z,103401.09
2023-01-23T16:19:20.526Z,103403.34
2023-01-23T16:22:03.171Z,103404.31
2023-01-23T16:24:36.010Z,103410.06
2023-01-23T16:27:03.553Z,103403.06
2023-01-23T16:29:32.519Z,103411.41
2023-01-23T16:32:01.581Z,103407.94
2023-01-23T16:34:29.288Z,103416.34
2023-01-23T16:36:59.080Z,103418.97
2023-01-23T16:39:27.925Z,103414.63
2023-01-23T16:41:56.642Z,103419.88
2023-01-23T16:44:24.804Z,103409.38
2023-01-23T16:46:53.286Z,103411.75
2023-01-23T16:49:21.159Z,103412.56
2023-01-23T16:51:52.870Z,103417.19
2023-01-23T16:54:21.289Z,103419.81
2023-01-23T16:56:50.830Z,103420.16
2023-01-23T16:59:21.401Z,103413.72
2023-01-23T17:01:51.544Z,103416.22
2023-01-23T17:04:21.378Z,103429.53
2023-01-23T17:06:49.290Z,103437.66
2023-01-23T17:09:17.471Z,103452.28
2023-01-23T17:11:47.474Z,103448.88
2023-01-23T17:14:17.035Z,103449.38
2023-01-23T17:16:46.293Z,103459.78
2023-01-23T17:19:19.847Z,103457.97
2023-01-23T17:21:47.560Z,103450.63
2023-01-23T17:24:16.182Z,103465.78
2023-01-23T17:26:43.886Z,103468.34
2023-01-23T17:29:12.085Z,103467.09
2023-01-23T17:31:40.156Z,103467.69
2023-01-23T17:34:15.535Z,103466.56
2023-01-23T17:36:43.050Z,103460.41
2023-01-23T17:39:10.611Z,103463.63
2023-01-23T17:41:38.084Z,103465.69
2023-01-23T17:44:06.138Z,103460.53
2023-01-23T17:46:36.758Z,103460.09
2023-01-23T17:49:05.181Z,103459.53
2023-01-23T17:51:34.263Z,103463.47
2023-01-23T17:54:01.637Z,103473.03
2023-01-23T17:56:29.069Z,103467.69
2023-01-23T17:58:56.551Z,103467.97
2023-01-23T18:01:25.605Z,103465.03
2023-01-23T18:03:53.652Z,103464.91
2023-01-23T18:06:21.376Z,103463.78
2023-01-23T18:08:50.271Z,103467.28
2023-01-23T18:11:19.965Z,103462.66
2023-01-23T18:13:54.695Z,103464.47
2023-01-23T18:16:25.585Z,103474.03
2023-01-23T18:18:57.951Z,103474.56
2023-01-23T18:21:25.750Z,103470.06
2023-01-23T18:23:55.302Z,103477.94
2023-01-23T18:26:33.078Z,103482.84
2023-01-23T18:29:06.671Z,103485.25
2023-01-23T18:31:39.457Z,103488.59
2023-01-23T18:34:15.707Z,103490.81
2023-01-23T18:36:51.394Z,103490.69
2023-01-23T18:39:34.857Z,103498.91
2023-01-23T18:42:14.387Z,103492.84
2023-01-23T18:44:43.491Z,103500.91
2023-01-23T18:47:12.633Z,103496.13
2023-01-23T18:49:41.014Z,103492.72
2023-01-23T18:52:10.847Z,103501.97
2023-01-23T18:54:43.729Z,103497.59
2023-01-23T18:57:19.386Z,103502.38
2023-01-23T18:59:49.758Z,103508.03
2023-01-23T19:02:26.051Z,103502.59
2023-01-23T19:04:58.635Z,103510.69
2023-01-23T19:07:26.449Z,103500.91
2023-01-23T19:09:56.017Z,103500.03
2023-01-23T19:12:28.673Z,103496.00
2023-01-23T19:15:16.198Z,103500.78
2023-01-23T19:17:46.015Z,103494.41
2023-01-23T19:20:27.365Z,103499.28
2023-01-23T19:23:02.064Z,103507.94
2023-01-23T19:25:31.337Z,103500.09
2023-01-23T19:28:00.898Z,103505.56
2023-01-23T19:30:28.964Z,103502.59
2023-01-23T19:32:56.349Z,103500.59
2023-01-23T19:35:23.826Z,103503.44
2023-01-23T19:37:51.377Z,103508.91
2023-01-23T19:40:19.322Z,103507.09
2023-01-23T19:42:56.334Z,103516.94
2023-01-23T19:45:29.083Z,103516.03
2023-01-23T19:47:56.518Z,103507.94
2023-01-23T19:50:24.036Z,103515.84
2023-01-23T19:52:52.430Z,103507.53
2023-01-23T19:55:25.471Z,103513.00
2023-01-23T19:57:56.142Z,103507.78
2023-01-23T20:00:24.059Z,103508.38
2023-01-23T20:02:51.529Z,103507.97
2023-01-23T20:05:19.374Z,103510.63
2023-01-23T20:07:46.903Z,103514.13
2023-01-23T20:10:14.412Z,103513.53
2023-01-23T20:12:43.005Z,103506.13
2023-01-23T20:15:13.212Z,103508.78
2023-01-23T20:17:41.330Z,103516.09
2023-01-23T20:20:22.844Z,103515.25
2023-01-23T20:22:59.470Z,103510.91
2023-01-23T20:25:36.895Z,103503.75
2023-01-23T20:28:04.777Z,103506.00
2023-01-23T20:30:33.706Z,103506.00
2023-01-23T20:33:01.244Z,103511.19
2023-01-23T20:35:29.675Z,103506.97
2023-01-23T20:37:57.216Z,103508.09
2023-01-23T20:40:24.727Z,103505.44
2023-01-23T20:42:52.143Z,103501.78
2023-01-23T20:45:19.668Z,103506.84
2023-01-23T20:47:49.163Z,103515.97
2023-01-23T20:50:17.246Z,103510.63
2023-01-23T20:53:02.483Z,103509.09
2023-01-23T20:55:30.029Z,103520.03
2023-01-23T20:58:15.392Z,103518.44
2023-01-23T21:00:44.663Z,103524.09
2023-01-23T21:03:13.853Z,103520.72
2023-01-23T21:05:42.833Z,103521.13
2023-01-23T21:11:34.816Z,103519.75
2023-01-23T21:14:25.626Z,103522.97
2023-01-23T21:17:22.093Z,103510.06
2023-01-23T21:19:50.910Z,103522.66
2023-01-23T21:22:28.058Z,103516.09
2023-01-23T21:24:55.715Z,103527.16
2023-01-23T21:27:25.165Z,103529.09
2023-01-23T21:29:53.422Z,103528.31
2023-01-23T21:32:23.499Z,103530.53
2023-01-23T21:34:52.457Z,103535.31
2023-01-23T21:37:20.178Z,103525.06
2023-01-23T21:39:47.779Z,103523.91
2023-01-23T21:42:15.394Z,103528.72
2023-01-23T21:44:42.849Z,103529.84
2023-01-23T21:47:10.286Z,103529.97
2023-01-23T21:49:37.834Z,103518.59
2023-01-23T21:52:06.580Z,103521.41
2023-01-23T21:54:33.963Z,103535.84
2023-01-23T21:57:03.112Z,103541.75
2023-01-23T21:59:30.479Z,103539.06
2023-01-23T22:01:56.992Z,103535.28
2023-01-23T22:04:24.523Z,103540.34
2023-01-23T22:06:54.221Z,103537.09
2023-01-23T22:09:25.786Z,103544.28
2023-01-23T22:11:53.590Z,103544.28
2023-01-23T22:14:21.220Z,103540.19
2023-01-23T22:16:50.250Z,103536.00
2023-01-23T22:19:20.990Z,103542.88
2023-01-23T22:21:49.611Z,103547.94
2023-01-23T22:24:17.135Z,103535.28
2023-01-23T22:26:45.952Z,103540.06
2023-01-23T22:29:14.834Z,103542.47
2023-01-23T22:31:42.507Z,103551.41
2023-01-23T22:34:10.679Z,103543.53
2023-01-23T22:36:38.430Z,103537.22
2023-01-23T22:39:05.936Z,103545.38
2023-01-23T22:41:33.604Z,103547.38
2023-01-23T22:44:02.360Z,103551.84
2023-01-23T22:46:32.036Z,103552.97
2023-01-23T22:48:59.587Z,103553.28
2023-01-23T22:51:28.403Z,103549.31
2023-01-23T22:53:57.034Z,103554.50
2023-01-23T22:56:25.543Z,103559.09
2023-01-23T22:58:54.407Z,103559.50
2023-01-23T23:01:23.918Z,103555.28
2023-01-23T23:03:51.407Z,103560.16
2023-01-23T23:06:19.260Z,103561.63
2023-01-23T23:08:48.137Z,103562.00
2023-01-23T23:11:17.598Z,103554.78
2023-01-23T23:13:45.788Z,103546.06
2023-01-23T23:16:15.612Z,103548.88
2023-01-23T23:18:44.988Z,103540.19
2023-01-23T23:21:14.835Z,103536.22
2023-01-23T23:23:42.353Z,103536.34
2023-01-23T23:26:10.857Z,103523.47
2023-01-23T23:28:39.633Z,103525.75
2023-01-23T23:31:08.197Z,103525.88
2023-01-23T23:33:35.780Z,103524.34
2023-01-23T23:36:04.665Z,103518.00
2023-01-23T23:38:32.144Z,103516.22
2023-01-23T23:41:00.919Z,103514.66
2023-01-23T23:43:29.207Z,103519.41
2023-01-23T23:45:58.003Z,103519.31
2023-01-23T23:48:26.461Z,103522.78
2023-01-23T23:50:54.544Z,103529.41
2023-01-23T23:53:23.818Z,103539.16
2023-01-23T23:55:51.391Z,103541.13
2023-01-23T23:58:18.988Z,103537.22
